createdAt,value
2022-10-16T00:01:26.123Z,0.90
2022-10-16T00:04:11.360Z,1.00
2022-10-16T00:06:56.835Z,1.00
2022-10-16T00:09:42.298Z,0.93
2022-10-16T00:12:28.047Z,1.00
2022-10-16T00:15:14.329Z,1.15
2022-10-16T00:17:59.693Z,1.20
2022-10-16T00:20:45.086Z,1.30
2022-10-16T00:23:30.616Z,1.23
2022-10-16T00:26:17.459Z,1.20
2022-10-16T00:29:04.074Z,1.02
2022-10-16T00:31:49.665Z,1.20
2022-10-16T00:34:35.525Z,1.30
2022-10-16T00:37:20.879Z,1.20
2022-10-16T00:40:06.675Z,1.63
2022-10-16T00:42:52.019Z,1.90
2022-10-16T00:45:37.738Z,1.30
2022-10-16T00:48:23.271Z,1.15
2022-10-16T00:51:09.289Z,1.27
2022-10-16T00:53:55.316Z,1.20
2022-10-16T00:56:41.391Z,1.30
2022-10-16T00:59:55.282Z,0.80
2022-10-16T01:02:40.529Z,1.00
2022-10-16T01:05:44.584Z,1.20
2022-10-16T01:08:49.497Z,0.98
2022-10-16T01:11:53.932Z,1.08
2022-10-16T01:14:59.852Z,1.17
2022-10-16T01:18:02.710Z,1.40
2022-10-16T01:24:23.282Z,1.20
2022-10-16T01:27:18.732Z,1.10
2022-10-16T01:30:14.979Z,1.05
2022-10-16T01:33:09.629Z,1.08
2022-10-16T01:36:01.236Z,1.00
2022-10-16T01:38:50.979Z,1.07
2022-10-16T01:41:42.423Z,0.80
2022-10-16T01:44:32.064Z,1.00
2022-10-16T01:47:18.590Z,0.90
2022-10-16T01:50:05.996Z,1.00
2022-10-16T01:52:54.306Z,1.10
2022-10-16T01:55:45.952Z,1.00
2022-10-16T01:58:35.608Z,0.80
2022-10-16T02:01:24.063Z,1.08
2022-10-16T02:04:19.618Z,0.90
2022-10-16T02:07:05.298Z,0.90
2022-10-16T02:09:50.981Z,1.23
2022-10-16T02:12:40.551Z,1.10
2022-10-16T02:15:25.628Z,1.00
2022-10-16T02:18:11.693Z,1.08
2022-10-16T02:21:13.121Z,1.00
2022-10-16T02:24:01.362Z,1.00
2022-10-16T02:27:02.121Z,1.10
2022-10-16T02:29:53.356Z,1.00
2022-10-16T02:32:43.221Z,0.90
2022-10-16T02:35:29.497Z,1.00
2022-10-16T02:38:17.086Z,1.00
2022-10-16T02:41:02.911Z,1.00
2022-10-16T02:43:48.162Z,1.05
2022-10-16T02:46:33.783Z,1.00
2022-10-16T02:49:19.611Z,1.00
2022-10-16T02:52:04.865Z,1.13
2022-10-16T02:54:50.265Z,0.95
2022-10-16T02:57:37.722Z,1.15
2022-10-16T03:00:23.444Z,1.02
2022-10-16T03:03:08.547Z,1.13
2022-10-16T03:05:53.993Z,1.33
2022-10-16T03:08:39.721Z,1.38
2022-10-16T03:11:24.832Z,1.20
2022-10-16T03:14:10.280Z,1.23
2022-10-16T03:16:55.662Z,1.40
2022-10-16T03:19:41.137Z,1.40
2022-10-16T03:22:26.661Z,1.60
2022-10-16T03:25:11.860Z,1.42
2022-10-16T03:27:57.349Z,1.60
2022-10-16T03:30:44.270Z,1.25
2022-10-16T03:33:30.609Z,1.58
2022-10-16T03:36:16.224Z,1.85
2022-10-16T03:39:01.962Z,1.60
2022-10-16T03:41:47.587Z,1.52
2022-10-16T03:44:32.869Z,1.63
2022-10-16T03:47:22.584Z,1.60
2022-10-16T03:50:08.550Z,1.55
2022-10-16T03:52:54.326Z,1.45
2022-10-16T03:55:41.780Z,1.80
2022-10-16T03:58:27.120Z,1.48
2022-10-16T04:01:12.643Z,1.42
2022-10-16T04:03:57.867Z,1.83
2022-10-16T04:06:43.206Z,1.58
2022-10-16T04:09:28.640Z,1.60
2022-10-16T04:12:13.924Z,1.60
2022-10-16T04:14:59.235Z,1.30
2022-10-16T04:17:44.508Z,1.50
2022-10-16T04:20:31.043Z,1.75
2022-10-16T04:23:16.396Z,1.48
2022-10-16T04:26:02.254Z,1.50
2022-10-16T04:28:47.904Z,1.58
2022-10-16T04:31:33.984Z,1.38
2022-10-16T04:34:19.597Z,1.60
2022-10-16T04:37:04.963Z,1.58
2022-10-16T04:39:50.271Z,1.33
2022-10-16T04:42:36.005Z,1.20
2022-10-16T04:45:21.452Z,1.50
2022-10-16T04:48:07.243Z,1.42
2022-10-16T04:50:54.436Z,1.60
2022-10-16T04:53:40.664Z,1.60
2022-10-16T04:56:26.039Z,1.70
2022-10-16T04:59:11.246Z,1.33
2022-10-16T05:01:56.470Z,1.42
2022-10-16T05:04:42.161Z,1.40
2022-10-16T05:07:27.705Z,1.70
2022-10-16T05:10:13.472Z,1.63
2022-10-16T05:12:58.814Z,1.50
2022-10-16T05:15:48.741Z,1.30
2022-10-16T05:18:34.085Z,1.30
2022-10-16T05:21:20.060Z,1.35
2022-10-16T05:24:05.240Z,1.40
2022-10-16T05:26:51.732Z,1.40
2022-10-16T05:29:36.618Z,1.60
2022-10-16T05:32:22.044Z,1.55
2022-10-16T05:35:10.237Z,1.40
2022-10-16T05:37:57.937Z,1.30
2022-10-16T05:40:43.535Z,1.30
2022-10-16T05:43:30.225Z,1.30
2022-10-16T05:46:16.580Z,1.08
2022-10-16T05:49:02.526Z,1.33
2022-10-16T05:51:47.671Z,1.30
2022-10-16T05:54:33.180Z,1.20
2022-10-16T05:57:18.692Z,1.48
2022-10-16T06:00:04.981Z,1.27
2022-10-16T06:02:58.009Z,1.20
2022-10-16T06:05:43.773Z,1.38
2022-10-16T06:08:29.071Z,1.42
2022-10-16T06:11:17.817Z,1.40
2022-10-16T06:14:07.455Z,1.40
2022-10-16T06:16:53.415Z,1.20
2022-10-16T06:19:38.818Z,1.48
2022-10-16T06:22:24.508Z,1.30
2022-10-16T06:25:10.138Z,1.27
2022-10-16T06:27:55.345Z,1.42
2022-10-16T06:30:40.803Z,1.33
2022-10-16T06:33:26.249Z,1.33
2022-10-16T06:36:15.285Z,1.40
2022-10-16T06:39:01.352Z,1.52
2022-10-16T06:41:46.363Z,1.48
2022-10-16T06:44:34.999Z,1.80
2022-10-16T06:47:20.520Z,1.50
2022-10-16T06:50:07.889Z,1.48
2022-10-16T06:52:53.025Z,1.40
2022-10-16T06:55:38.637Z,1.70
2022-10-16T06:58:24.586Z,1.63
2022-10-16T07:01:11.133Z,1.35
2022-10-16T07:03:56.758Z,1.38
2022-10-16T07:06:42.311Z,1.88
2022-10-16T07:09:27.443Z,1.50
2022-10-16T07:12:13.179Z,1.50
2022-10-16T07:14:58.321Z,1.33
2022-10-16T07:17:43.877Z,1.20
2022-10-16T07:20:29.256Z,1.20
2022-10-16T07:23:14.841Z,1.38
2022-10-16T07:26:00.199Z,1.35
2022-10-16T07:28:46.063Z,1.38
2022-10-16T07:31:31.374Z,1.17
2022-10-16T07:34:19.341Z,1.42
2022-10-16T07:37:04.762Z,1.13
2022-10-16T07:39:50.376Z,1.17
2022-10-16T07:42:35.508Z,1.20
2022-10-16T07:45:21.625Z,1.33
2022-10-16T07:48:06.953Z,1.30
2022-10-16T07:50:52.404Z,1.42
2022-10-16T07:53:37.730Z,1.13
2022-10-16T07:56:23.988Z,1.45
2022-10-16T07:59:09.156Z,1.40
2022-10-16T08:01:54.733Z,1.08
2022-10-16T08:04:40.361Z,0.88
2022-10-16T08:07:25.890Z,0.95
2022-10-16T08:10:18.305Z,1.10
2022-10-16T08:13:04.006Z,1.25
2022-10-16T08:15:49.844Z,1.10
2022-10-16T08:18:40.043Z,1.13
2022-10-16T08:21:25.489Z,1.38
2022-10-16T08:24:11.307Z,1.05
2022-10-16T08:26:56.404Z,1.70
2022-10-16T08:29:41.911Z,1.23
2022-10-16T08:32:27.705Z,1.23
2022-10-16T08:35:15.445Z,1.20
2022-10-16T08:38:00.724Z,1.20
2022-10-16T08:40:49.797Z,1.05
2022-10-16T08:44:06.233Z,1.20
2022-10-16T08:47:25.670Z,1.23
2022-10-16T08:50:14.086Z,1.30
2022-10-16T08:52:59.851Z,1.70
2022-10-16T08:55:50.393Z,1.50
2022-10-16T08:58:35.906Z,1.10
2022-10-16T09:01:26.324Z,1.48
2022-10-16T09:04:47.928Z,1.58
2022-10-16T09:07:47.006Z,1.27
2022-10-16T09:10:55.853Z,1.33
2022-10-16T09:14:20.032Z,1.48
2022-10-16T09:17:21.313Z,1.40
2022-10-16T09:20:41.629Z,1.45
2022-10-16T09:23:30.100Z,1.40
2022-10-16T09:26:17.257Z,1.50
2022-10-16T09:29:04.134Z,1.40
2022-10-16T09:31:49.469Z,1.52
2022-10-16T09:34:40.345Z,2.03
2022-10-16T09:37:26.784Z,1.52
2022-10-16T09:40:29.113Z,1.60
2022-10-16T09:43:20.606Z,1.67
2022-10-16T09:46:08.780Z,1.50
2022-10-16T09:48:58.045Z,1.35
2022-10-16T09:51:43.044Z,1.65
2022-10-16T09:54:28.358Z,1.50
2022-10-16T09:57:14.578Z,1.88
2022-10-16T09:59:59.913Z,1.60
2022-10-16T10:02:46.407Z,1.70
2022-10-16T10:05:31.776Z,1.60
2022-10-16T10:08:19.419Z,1.60
2022-10-16T10:11:05.689Z,1.65
2022-10-16T10:13:51.121Z,1.55
2022-10-16T10:16:36.443Z,1.65
2022-10-16T10:19:25.419Z,1.55
2022-10-16T10:22:40.651Z,1.23
2022-10-16T10:28:51.787Z,1.70
2022-10-16T10:31:53.374Z,1.70
2022-10-16T10:35:23.908Z,1.50
2022-10-16T10:38:18.185Z,1.40
2022-10-16T10:41:26.687Z,1.70
2022-10-16T10:44:51.845Z,1.20
2022-10-16T10:50:34.201Z,1.85
2022-10-16T10:53:33.036Z,1.35
2022-10-16T10:56:51.039Z,1.98
2022-10-16T10:59:45.262Z,1.63
2022-10-16T11:02:47.466Z,1.23
2022-10-16T11:05:41.898Z,2.00
2022-10-16T11:08:44.418Z,1.63
2022-10-16T11:11:35.837Z,1.60
2022-10-16T11:14:27.368Z,1.20
2022-10-16T11:17:27.187Z,1.33
2022-10-16T11:20:24.329Z,1.50
2022-10-16T11:23:41.959Z,1.40
2022-10-16T11:26:42.216Z,1.60
2022-10-16T11:29:31.740Z,1.38
2022-10-16T11:32:29.728Z,1.30
2022-10-16T11:35:31.829Z,1.13
2022-10-16T11:38:27.181Z,1.35
2022-10-16T11:41:35.726Z,1.40
2022-10-16T11:44:58.857Z,1.63
2022-10-16T11:47:59.727Z,1.52
2022-10-16T11:50:52.593Z,1.15
2022-10-16T11:54:21.857Z,1.55
2022-10-16T11:57:15.672Z,1.42
2022-10-16T12:00:23.724Z,1.25
2022-10-16T12:03:30.145Z,1.00
2022-10-16T12:06:37.198Z,1.17
2022-10-16T12:09:33.944Z,1.50
2022-10-16T12:12:30.401Z,1.30
2022-10-16T12:15:54.052Z,1.13
2022-10-16T12:18:35.312Z,1.23
2022-10-16T12:21:31.658Z,1.20
2022-10-16T12:24:34.253Z,1.02
2022-10-16T12:27:24.235Z,0.88
2022-10-16T12:30:23.002Z,0.93
2022-10-16T12:33:42.416Z,1.00
2022-10-16T12:36:30.901Z,1.10
2022-10-16T12:39:25.227Z,1.20
2022-10-16T12:42:29.339Z,0.95
2022-10-16T12:45:29.635Z,0.90
2022-10-16T12:48:26.478Z,1.50
2022-10-16T12:51:30.188Z,1.15
2022-10-16T12:54:17.913Z,1.02
2022-10-16T12:57:35.521Z,1.10
2022-10-16T13:00:45.745Z,1.40
2022-10-16T13:04:28.949Z,1.20
2022-10-16T13:07:44.667Z,1.17
2022-10-16T13:10:38.454Z,1.10
2022-10-16T13:13:35.349Z,1.00
2022-10-16T13:16:20.889Z,0.90
2022-10-16T13:19:28.413Z,1.00
2022-10-16T13:22:44.166Z,1.13
2022-10-16T13:26:16.512Z,0.82
2022-10-16T13:29:02.745Z,1.30
2022-10-16T13:31:48.083Z,0.93
2022-10-16T13:34:33.672Z,0.85
2022-10-16T13:37:21.857Z,1.10
2022-10-16T13:40:21.136Z,1.08
2022-10-16T13:43:06.216Z,0.90
2022-10-16T13:46:00.863Z,1.13
2022-10-16T13:49:00.647Z,1.02
2022-10-16T13:51:57.522Z,1.08
2022-10-16T13:54:42.817Z,0.93
2022-10-16T13:57:28.758Z,1.10
2022-10-16T14:00:33.018Z,1.10
2022-10-16T14:03:18.464Z,1.20
2022-10-16T14:06:11.996Z,0.82
2022-10-16T14:09:07.511Z,1.00
2022-10-16T14:12:01.519Z,0.88
2022-10-16T14:14:49.672Z,0.88
2022-10-16T14:17:36.607Z,0.90
2022-10-16T14:20:27.516Z,0.85
2022-10-16T14:23:31.237Z,0.90
2022-10-16T14:26:21.299Z,0.90
2022-10-16T14:29:15.947Z,1.10
2022-10-16T14:32:04.019Z,0.90
2022-10-16T14:34:54.770Z,0.98
2022-10-16T14:37:40.496Z,1.00
2022-10-16T14:40:31.657Z,0.80
2022-10-16T14:43:24.474Z,0.98
2022-10-16T14:46:14.545Z,1.02
2022-10-16T14:49:20.748Z,0.98
2022-10-16T14:52:11.210Z,0.77
2022-10-16T14:54:58.120Z,0.80
2022-10-16T14:57:45.105Z,0.75
2022-10-16T15:00:30.776Z,0.98
2022-10-16T15:03:16.637Z,1.08
2022-10-16T15:06:02.154Z,1.30
2022-10-16T15:08:47.665Z,0.88
2022-10-16T15:11:34.096Z,0.90
2022-10-16T15:14:19.525Z,0.80
2022-10-16T15:17:05.132Z,1.17
2022-10-16T15:19:50.571Z,0.90
2022-10-16T15:22:35.829Z,0.95
2022-10-16T15:25:30.435Z,1.00
2022-10-16T15:28:17.052Z,0.80
2022-10-16T15:31:05.144Z,1.00
2022-10-16T15:34:02.332Z,1.05
2022-10-16T15:36:48.075Z,0.90
2022-10-16T15:39:35.671Z,0.90
2022-10-16T15:42:24.450Z,0.80
2022-10-16T15:45:12.081Z,1.10
2022-10-16T15:47:57.483Z,1.00
2022-10-16T15:53:29.791Z,1.00
2022-10-16T15:56:15.924Z,0.90
2022-10-16T15:59:02.822Z,0.98
2022-10-16T16:01:48.426Z,1.02
2022-10-16T16:04:49.079Z,0.77
2022-10-16T16:07:35.567Z,1.00
2022-10-16T16:10:21.928Z,0.80
2022-10-16T16:13:07.243Z,1.13
2022-10-16T16:15:52.528Z,1.20
2022-10-16T16:18:38.820Z,1.10
2022-10-16T16:21:23.938Z,1.00
2022-10-16T16:24:09.732Z,1.20
2022-10-16T16:26:54.940Z,1.50
2022-10-16T16:29:40.988Z,1.30
2022-10-16T16:32:26.426Z,1.42
2022-10-16T16:35:11.957Z,1.25
2022-10-16T16:37:57.218Z,1.48
2022-10-16T16:40:42.620Z,1.10
2022-10-16T16:43:28.551Z,1.35
2022-10-16T16:46:15.198Z,1.40
2022-10-16T16:49:00.736Z,1.20
2022-10-16T16:51:46.074Z,1.25
2022-10-16T16:54:31.698Z,1.40
2022-10-16T16:57:17.041Z,1.20
2022-10-16T17:00:02.462Z,1.20
2022-10-16T17:02:51.391Z,1.10
2022-10-16T17:05:36.768Z,1.50
2022-10-16T17:08:22.240Z,1.05
2022-10-16T17:11:12.557Z,1.10
2022-10-16T17:13:59.994Z,1.10
2022-10-16T17:16:45.376Z,1.00
2022-10-16T17:19:30.801Z,1.10
2022-10-16T17:22:16.262Z,1.02
2022-10-16T17:25:03.944Z,1.10
2022-10-16T17:27:48.989Z,1.13
2022-10-16T17:30:35.691Z,1.40
2022-10-16T17:33:20.887Z,0.90
2022-10-16T17:36:07.832Z,1.40
2022-10-16T17:38:52.981Z,1.20
2022-10-16T17:41:38.441Z,1.10
2022-10-16T17:44:23.931Z,1.33
2022-10-16T17:47:09.391Z,1.02
2022-10-16T17:49:55.067Z,1.13
2022-10-16T17:52:40.508Z,1.13
2022-10-16T17:55:27.231Z,1.10
2022-10-16T17:58:13.141Z,1.10
2022-10-16T18:00:58.909Z,1.05
2022-10-16T18:03:44.406Z,1.30
2022-10-16T18:06:30.741Z,1.17
2022-10-16T18:09:20.898Z,1.35
2022-10-16T18:12:06.189Z,1.25
2022-10-16T18:14:55.664Z,1.20
2022-10-16T18:17:41.044Z,1.20
2022-10-16T18:20:26.525Z,1.33
2022-10-16T18:23:11.932Z,1.20
2022-10-16T18:25:57.663Z,1.30
2022-10-16T18:28:44.198Z,1.30
2022-10-16T18:31:29.896Z,1.25
2022-10-16T18:34:15.086Z,1.10
2022-10-16T18:37:00.773Z,1.00
2022-10-16T18:39:49.898Z,1.33
2022-10-16T18:42:35.173Z,1.25
2022-10-16T18:45:21.264Z,1.20
2022-10-16T18:48:06.846Z,1.17
2022-10-16T18:50:52.401Z,1.25
2022-10-16T18:53:39.042Z,1.67
2022-10-16T18:56:25.641Z,1.70
2022-10-16T18:59:11.369Z,1.60
2022-10-16T19:01:57.540Z,1.70
2022-10-16T19:04:43.141Z,1.70
2022-10-16T19:07:28.809Z,1.90
2022-10-16T19:10:14.755Z,1.80
2022-10-16T19:12:59.806Z,1.50
2022-10-16T19:15:53.166Z,1.77
2022-10-16T19:18:43.733Z,1.42
2022-10-16T19:21:30.091Z,1.67
2022-10-16T19:24:16.671Z,1.70
2022-10-16T19:27:01.773Z,1.60
2022-10-16T19:29:47.420Z,1.30
2022-10-16T19:32:32.841Z,1.50
2022-10-16T19:35:17.959Z,1.88
2022-10-16T19:38:03.499Z,1.70
2022-10-16T19:40:48.949Z,1.70
2022-10-16T19:43:34.772Z,1.98
2022-10-16T19:46:23.265Z,1.40
2022-10-16T19:49:14.074Z,1.63
2022-10-16T19:51:59.107Z,1.85
2022-10-16T19:54:44.653Z,1.52
2022-10-16T19:57:32.429Z,1.80
2022-10-16T20:00:18.432Z,1.77
2022-10-16T20:03:04.037Z,1.90
2022-10-16T20:05:54.627Z,1.80
2022-10-16T20:08:41.548Z,2.30
2022-10-16T20:11:30.089Z,1.92
2022-10-16T20:14:15.041Z,2.33
2022-10-16T20:17:01.671Z,2.00
2022-10-16T20:19:46.842Z,1.88
2022-10-16T20:22:32.097Z,2.40
2022-10-16T20:25:19.157Z,2.00
2022-10-16T20:28:05.651Z,2.50
2022-10-16T20:30:51.243Z,2.67
2022-10-16T20:33:37.090Z,2.80
2022-10-16T20:36:23.818Z,2.55
2022-10-16T20:39:10.405Z,2.72
2022-10-16T20:41:55.798Z,2.35
2022-10-16T20:44:41.092Z,2.20
2022-10-16T20:47:26.692Z,2.20
2022-10-16T20:50:13.992Z,2.05
2022-10-16T20:52:59.733Z,2.42
2022-10-16T20:55:44.774Z,2.08
2022-10-16T20:58:30.022Z,2.00
2022-10-16T21:01:17.892Z,2.38
2022-10-16T21:04:06.248Z,2.65
2022-10-16T21:06:51.573Z,2.97
2022-10-16T21:09:37.024Z,2.60
2022-10-16T21:12:23.643Z,2.58
2022-10-16T21:15:14.845Z,2.78
2022-10-16T21:18:00.683Z,3.40
2022-10-16T21:20:45.882Z,3.20
2022-10-16T21:23:32.607Z,3.20
2022-10-16T21:26:20.981Z,3.38
2022-10-16T21:29:07.436Z,3.53
2022-10-16T21:31:53.073Z,3.50
2022-10-16T21:34:38.768Z,3.45
2022-10-16T21:37:24.340Z,3.22
2022-10-16T21:40:10.293Z,3.30
2022-10-16T21:42:55.770Z,3.00
2022-10-16T21:45:41.355Z,2.88
2022-10-16T21:48:26.862Z,3.00
2022-10-16T21:51:13.523Z,2.97
2022-10-16T21:53:58.529Z,2.90
2022-10-16T21:56:44.172Z,2.90
2022-10-16T21:59:29.262Z,2.75
2022-10-16T22:02:14.802Z,3.00
2022-10-16T22:05:00.361Z,3.15
2022-10-16T22:07:45.773Z,3.03
2022-10-16T22:10:31.651Z,2.63
2022-10-16T22:13:17.004Z,2.63
2022-10-16T22:16:03.225Z,2.30
2022-10-16T22:18:50.864Z,2.40
2022-10-16T22:21:38.789Z,2.45
2022-10-16T22:24:24.469Z,2.40
2022-10-16T22:27:09.827Z,2.53
2022-10-16T22:29:55.184Z,2.55
2022-10-16T22:32:40.557Z,2.50
2022-10-16T22:35:25.897Z,2.65
2022-10-16T22:38:11.252Z,2.60
2022-10-16T22:41:05.138Z,2.72
2022-10-16T22:43:51.226Z,2.50
2022-10-16T22:46:36.772Z,3.13
2022-10-16T22:49:22.355Z,3.60
2022-10-16T22:52:07.570Z,3.00
2022-10-16T22:54:52.977Z,3.17
2022-10-16T22:57:38.929Z,3.05
2022-10-16T23:00:24.340Z,3.13
2022-10-16T23:03:10.079Z,3.30
2022-10-16T23:05:55.824Z,3.05
2022-10-16T23:08:41.632Z,3.50
2022-10-16T23:11:28.646Z,3.25
2022-10-16T23:14:14.004Z,3.28
2022-10-16T23:16:59.354Z,3.35
2022-10-16T23:19:44.828Z,3.35
2022-10-16T23:22:30.357Z,3.60
2022-10-16T23:25:16.239Z,3.40
2022-10-16T23:28:01.914Z,3.55
2022-10-16T23:30:47.849Z,3.22
2022-10-16T23:33:34.845Z,3.30
2022-10-16T23:36:21.796Z,2.90
2022-10-16T23:39:06.819Z,3.10
2022-10-16T23:41:52.468Z,3.30
2022-10-16T23:44:38.425Z,3.47
2022-10-16T23:47:23.921Z,2.97
2022-10-16T23:50:10.038Z,3.13
2022-10-16T23:52:55.251Z,3.08
2022-10-16T23:55:40.746Z,2.72
2022-10-16T23:58:26.383Z,3.00
